createdAt,value
2017-11-01T00:01:33.331Z,21.96
2017-11-01T00:03:59.085Z,21.97
2017-11-01T00:06:24.840Z,22.02
2017-11-01T00:08:50.584Z,21.84
2017-11-01T00:11:16.331Z,21.94
2017-11-01T00:13:42.086Z,21.98
2017-11-01T00:16:07.864Z,21.93
2017-11-01T00:18:33.629Z,21.97
2017-11-01T00:20:59.393Z,21.96
2017-11-01T00:23:25.136Z,21.97
2017-11-01T00:25:50.884Z,22.00
2017-11-01T00:28:16.641Z,21.83
2017-11-01T00:30:42.406Z,21.85
2017-11-01T00:33:08.160Z,21.95
2017-11-01T00:35:33.925Z,21.93
2017-11-01T00:37:59.726Z,21.95
2017-11-01T00:40:25.492Z,21.90
2017-11-01T00:42:51.456Z,21.91
2017-11-01T00:45:17.259Z,21.87
2017-11-01T00:47:43.024Z,21.86
2017-11-01T00:50:08.792Z,22.02
2017-11-01T00:52:34.549Z,21.97
2017-11-01T00:55:00.317Z,22.00
2017-11-01T00:57:26.797Z,21.88
2017-11-01T00:59:52.571Z,21.89
2017-11-01T01:02:18.359Z,21.98
2017-11-01T01:04:44.108Z,21.97
2017-11-01T01:07:09.863Z,21.95
2017-11-01T01:09:35.621Z,21.94
2017-11-01T01:12:01.359Z,21.97
2017-11-01T01:14:27.117Z,21.96
2017-11-01T01:16:52.861Z,21.94
2017-11-01T01:19:18.622Z,21.88
2017-11-01T01:21:44.369Z,21.93
2017-11-01T01:24:10.127Z,21.94
2017-11-01T01:26:35.887Z,21.93
2017-11-01T01:29:01.729Z,21.96
2017-11-01T01:31:27.485Z,21.96
2017-11-01T01:33:53.295Z,22.00
2017-11-01T01:36:19.047Z,21.94
2017-11-01T01:38:44.801Z,21.94
2017-11-01T01:41:10.551Z,21.90
2017-11-01T01:43:36.357Z,21.93
2017-11-01T01:46:02.978Z,21.94
2017-11-01T01:48:28.740Z,21.99
2017-11-01T01:50:54.557Z,21.92
2017-11-01T01:53:20.313Z,21.97
2017-11-01T01:55:46.092Z,22.01
2017-11-01T01:58:11.840Z,22.00
2017-11-01T02:00:37.636Z,21.97
2017-11-01T02:03:04.724Z,21.94
2017-11-01T02:05:31.445Z,21.95
2017-11-01T02:07:57.228Z,21.91
2017-11-01T02:10:23.867Z,21.94
2017-11-01T02:12:49.625Z,21.87
2017-11-01T02:15:15.386Z,21.81
2017-11-01T02:17:41.956Z,21.89
2017-11-01T02:20:07.708Z,21.96
2017-11-01T02:22:33.515Z,22.02
2017-11-01T02:25:00.275Z,22.02
2017-11-01T02:27:26.040Z,22.02
2017-11-01T02:29:52.625Z,22.05
2017-11-01T02:32:18.388Z,22.10
2017-11-01T02:34:44.143Z,22.09
2017-11-01T02:37:10.828Z,22.12
2017-11-01T02:39:36.643Z,22.09
2017-11-01T02:42:03.387Z,22.13
2017-11-01T02:44:29.143Z,22.04
2017-11-01T02:46:55.907Z,22.08
2017-11-01T02:49:22.641Z,22.04
2017-11-01T02:51:48.401Z,22.09
2017-11-01T02:54:14.176Z,22.10
2017-11-01T02:56:40.886Z,22.14
2017-11-01T02:59:06.648Z,22.09
2017-11-01T03:01:32.396Z,22.11
2017-11-01T03:03:59.137Z,22.05
2017-11-01T03:06:24.893Z,21.94
2017-11-01T03:08:50.657Z,22.05
2017-11-01T03:11:16.426Z,22.03
2017-11-01T03:13:43.212Z,22.08
2017-11-01T03:16:08.983Z,22.11
2017-11-01T03:18:34.732Z,22.05
2017-11-01T03:21:01.324Z,22.08
2017-11-01T03:23:27.106Z,22.09
2017-11-01T03:25:52.945Z,22.04
2017-11-01T03:28:19.729Z,21.89
2017-11-01T03:30:45.620Z,21.96
2017-11-01T03:33:12.321Z,21.99
2017-11-01T03:35:38.079Z,22.00
2017-11-01T03:38:04.843Z,21.95
2017-11-01T03:40:30.641Z,22.04
2017-11-01T03:42:56.397Z,22.00
2017-11-01T03:45:22.168Z,22.04
2017-11-01T03:47:47.917Z,22.04
2017-11-01T03:50:13.737Z,21.95
2017-11-01T03:52:39.489Z,21.99
2017-11-01T03:55:06.159Z,21.99
2017-11-01T03:57:31.909Z,22.01
2017-11-01T03:59:57.793Z,22.03
2017-11-01T04:02:23.589Z,22.01
2017-11-01T04:04:49.460Z,21.97
2017-11-01T04:07:15.224Z,21.94
2017-11-01T04:09:40.968Z,21.88
2017-11-01T04:12:06.724Z,21.96
2017-11-01T04:14:32.495Z,22.04
2017-11-01T04:17:01.026Z,21.99
2017-11-01T04:19:26.789Z,22.00
2017-11-01T04:21:54.727Z,21.96
2017-11-01T04:24:21.223Z,21.98
2017-11-01T04:26:47.967Z,21.93
2017-11-01T04:29:13.748Z,21.96
2017-11-01T04:31:40.487Z,21.94
2017-11-01T04:34:06.231Z,21.94
2017-11-01T04:36:32.835Z,21.95
2017-11-01T04:38:58.596Z,21.94
2017-11-01T04:41:24.372Z,21.93
2017-11-01T04:43:50.983Z,21.93
2017-11-01T04:46:16.733Z,21.81
2017-11-01T04:48:42.553Z,21.90
2017-11-01T04:51:10.281Z,21.92
2017-11-01T04:53:36.049Z,21.89
2017-11-01T04:56:02.924Z,21.94
2017-11-01T04:58:28.752Z,21.84
2017-11-01T05:00:57.536Z,21.84
2017-11-01T05:03:25.179Z,21.88
2017-11-01T05:05:50.936Z,21.94
2017-11-01T05:08:22.827Z,21.97
2017-11-01T05:10:48.575Z,21.98
2017-11-01T05:13:19.620Z,22.00
2017-11-01T05:15:45.425Z,21.97
2017-11-01T05:18:11.257Z,21.87
2017-11-01T05:20:37.036Z,21.93
2017-11-01T05:23:02.783Z,21.93
2017-11-01T05:28:20.717Z,21.78
2017-11-01T05:30:46.480Z,21.94
2017-11-01T05:33:12.247Z,21.94
2017-11-01T05:35:38.025Z,21.97
2017-11-01T05:38:03.789Z,21.86
2017-11-01T05:40:29.584Z,21.87
2017-11-01T05:42:55.480Z,21.84
2017-11-01T05:45:21.242Z,21.91
2017-11-01T05:47:47.123Z,21.83
2017-11-01T05:50:12.915Z,21.82
2017-11-01T05:52:39.832Z,21.88
2017-11-01T05:55:05.608Z,22.03
2017-11-01T05:57:31.368Z,22.00
2017-11-01T05:59:57.145Z,22.04
2017-11-01T06:02:22.950Z,22.06
2017-11-01T06:04:49.591Z,22.05
2017-11-01T06:07:17.165Z,21.97
2017-11-01T06:09:43.871Z,22.04
2017-11-01T06:12:09.629Z,22.03
2017-11-01T06:14:36.356Z,22.01
2017-11-01T06:17:02.156Z,21.86
2017-11-01T06:19:28.784Z,21.91
2017-11-01T06:21:54.586Z,21.94
2017-11-01T06:24:21.341Z,21.93
2017-11-01T06:26:48.298Z,21.89
2017-11-01T06:29:14.099Z,21.98
2017-11-01T06:31:39.873Z,21.97
2017-11-01T06:34:05.688Z,21.83
2017-11-01T06:36:31.468Z,21.91
2017-11-01T06:38:57.241Z,21.85
2017-11-01T06:41:23.779Z,21.90
2017-11-01T06:43:49.571Z,21.94
2017-11-01T06:46:16.311Z,21.93
2017-11-01T06:48:42.128Z,21.89
2017-11-01T06:51:08.775Z,21.87
2017-11-01T06:53:34.582Z,21.64
2017-11-01T06:56:00.359Z,21.82
2017-11-01T06:58:26.148Z,21.78
2017-11-01T07:00:52.587Z,21.91
2017-11-01T07:03:22.455Z,21.94
2017-11-01T07:05:48.224Z,21.92
2017-11-01T07:08:13.989Z,21.92
2017-11-01T07:10:40.102Z,21.86
2017-11-01T07:13:05.852Z,21.91
2017-11-01T07:15:32.395Z,21.92
2017-11-01T07:17:58.147Z,21.91
2017-11-01T07:20:23.963Z,21.99
2017-11-01T07:22:49.712Z,21.96
2017-11-01T07:25:15.447Z,21.98
2017-11-01T07:27:42.087Z,21.93
2017-11-01T07:30:07.865Z,21.92
2017-11-01T07:32:33.608Z,21.87
2017-11-01T07:34:59.360Z,21.93
2017-11-01T07:37:25.120Z,21.82
2017-11-01T07:39:50.894Z,21.87
2017-11-01T07:42:16.644Z,21.92
2017-11-01T07:44:42.459Z,22.00
2017-11-01T07:47:08.233Z,22.04
2017-11-01T07:49:34.002Z,22.08
2017-11-01T07:52:00.570Z,22.16
2017-11-01T07:54:26.323Z,22.13
2017-11-01T07:56:52.623Z,22.15
2017-11-01T07:59:18.372Z,22.09
2017-11-01T08:01:45.106Z,22.16
2017-11-01T08:04:10.886Z,22.18
2017-11-01T08:06:37.575Z,22.17
2017-11-01T08:09:04.331Z,22.12
2017-11-01T08:11:30.087Z,22.08
2017-11-01T08:13:55.854Z,22.09
2017-11-01T08:16:21.612Z,22.18
2017-11-01T08:18:47.365Z,22.17
2017-11-01T08:21:13.114Z,22.15
2017-11-01T08:23:39.020Z,22.15
2017-11-01T08:26:05.756Z,22.21
2017-11-01T08:28:31.514Z,22.08
2017-11-01T08:30:57.264Z,22.06
2017-11-01T08:33:24.047Z,22.06
2017-11-01T08:35:49.807Z,22.14
2017-11-01T08:38:15.572Z,22.16
2017-11-01T08:40:41.329Z,22.11
2017-11-01T08:43:08.107Z,22.11
2017-11-01T08:45:33.846Z,22.09
2017-11-01T08:47:59.639Z,22.12
2017-11-01T08:50:26.354Z,22.03
2017-11-01T08:52:52.102Z,22.02
2017-11-01T08:55:21.060Z,22.07
2017-11-01T08:57:47.824Z,22.04
2017-11-01T09:00:13.575Z,22.11
2017-11-01T09:02:39.363Z,22.12
2017-11-01T09:05:05.898Z,22.11
2017-11-01T09:07:31.662Z,22.12
2017-11-01T09:09:57.409Z,22.08
2017-11-01T09:12:24.442Z,21.98
2017-11-01T09:14:51.204Z,22.07
2017-11-01T09:17:17.940Z,22.09
2017-11-01T09:19:44.596Z,22.12
2017-11-01T09:22:10.352Z,21.99
2017-11-01T09:24:36.916Z,22.02
2017-11-01T09:27:03.702Z,22.05
2017-11-01T09:29:30.468Z,22.05
2017-11-01T09:31:56.223Z,22.09
2017-11-01T09:34:21.972Z,22.09
2017-11-01T09:36:47.716Z,22.08
2017-11-01T09:39:13.476Z,22.05
2017-11-01T09:41:39.224Z,22.07
2017-11-01T09:44:04.980Z,22.08
2017-11-01T09:46:30.876Z,22.07
2017-11-01T09:48:56.623Z,22.08
2017-11-01T09:51:22.460Z,22.09
2017-11-01T09:53:48.225Z,22.08
2017-11-01T09:56:13.998Z,22.12
2017-11-01T09:58:39.749Z,22.16
2017-11-01T10:01:06.415Z,22.05
2017-11-01T10:03:32.183Z,22.06
2017-11-01T10:05:58.782Z,22.09
2017-11-01T10:08:24.538Z,22.05
2017-11-01T10:10:50.288Z,22.06
2017-11-01T10:13:16.040Z,22.11
2017-11-01T10:15:41.799Z,22.12
2017-11-01T10:18:07.545Z,22.14
2017-11-01T10:20:33.313Z,22.15
2017-11-01T10:22:59.065Z,22.09
2017-11-01T10:25:24.811Z,22.09
2017-11-01T10:27:50.560Z,22.07
2017-11-01T10:30:16.312Z,22.08
2017-11-01T10:32:42.078Z,22.18
2017-11-01T10:35:07.839Z,22.15
2017-11-01T10:37:33.641Z,22.15
2017-11-01T10:40:00.195Z,22.13
2017-11-01T10:42:25.948Z,22.17
2017-11-01T10:44:51.722Z,22.13
2017-11-01T10:47:17.472Z,22.10
2017-11-01T10:49:43.216Z,22.10
2017-11-01T10:52:09.777Z,22.15
2017-11-01T10:54:36.354Z,22.10
2017-11-01T10:57:03.012Z,22.11
2017-11-01T10:59:29.449Z,22.03
2017-11-01T11:01:55.283Z,22.09
2017-11-01T11:04:21.377Z,22.15
2017-11-01T11:06:48.075Z,22.24
2017-11-01T11:09:14.633Z,22.28
2017-11-01T11:11:41.291Z,22.28
2017-11-01T11:14:07.049Z,22.26
2017-11-01T11:16:33.752Z,22.35
2017-11-01T11:18:59.519Z,22.29
2017-11-01T11:21:26.250Z,22.30
2017-11-01T11:23:52.005Z,22.34
2017-11-01T11:26:18.628Z,22.33
2017-11-01T11:28:44.388Z,22.26
2017-11-01T11:31:10.145Z,22.27
2017-11-01T11:33:36.924Z,22.32
2017-11-01T11:36:02.679Z,22.31
2017-11-01T11:38:28.432Z,22.42
2017-11-01T11:40:55.179Z,22.32
2017-11-01T11:43:21.759Z,22.32
2017-11-01T11:45:47.524Z,22.30
2017-11-01T11:48:14.075Z,22.34
2017-11-01T11:50:39.854Z,22.24
2017-11-01T11:53:05.611Z,22.23
2017-11-01T11:55:31.406Z,22.37
2017-11-01T11:57:57.985Z,22.38
2017-11-01T12:00:24.796Z,22.27
2017-11-01T12:02:50.551Z,22.26
2017-11-01T12:05:17.343Z,22.32
2017-11-01T12:07:44.108Z,22.36
2017-11-01T12:10:10.859Z,22.29
2017-11-01T12:12:36.644Z,22.29
2017-11-01T12:15:03.388Z,22.28
2017-11-01T12:17:29.142Z,22.23
2017-11-01T12:19:55.900Z,22.20
2017-11-01T12:22:21.674Z,22.25
2017-11-01T12:24:48.360Z,22.28
2017-11-01T12:27:14.104Z,22.23
2017-11-01T12:29:39.855Z,22.32
2017-11-01T12:32:06.653Z,22.34
2017-11-01T12:34:32.404Z,22.24
2017-11-01T12:36:59.080Z,22.24
2017-11-01T12:39:24.850Z,22.19
2017-11-01T12:41:51.544Z,22.27
2017-11-01T12:44:18.248Z,22.28
2017-11-01T12:46:44.099Z,22.27
2017-11-01T12:49:10.692Z,22.25
2017-11-01T12:51:37.558Z,22.23
2017-11-01T12:54:04.279Z,22.37
2017-11-01T12:56:30.027Z,22.27
2017-11-01T12:58:55.793Z,22.25
2017-11-01T13:01:21.586Z,22.26
2017-11-01T13:03:48.127Z,22.24
2017-11-01T13:06:13.907Z,22.27
2017-11-01T13:08:39.659Z,22.24
2017-11-01T13:11:05.405Z,22.31
2017-11-01T13:13:31.164Z,22.27
2017-11-01T13:15:56.912Z,22.31
2017-11-01T13:18:22.668Z,22.31
2017-11-01T13:20:48.430Z,22.33
2017-11-01T13:23:14.236Z,22.25
2017-11-01T13:25:40.002Z,22.25
2017-11-01T13:28:05.757Z,22.31
2017-11-01T13:30:32.364Z,22.35
2017-11-01T13:32:58.154Z,22.33
2017-11-01T13:35:24.811Z,22.29
2017-11-01T13:37:50.568Z,22.31
2017-11-01T13:40:16.344Z,22.27
2017-11-01T13:42:42.092Z,22.27
2017-11-01T13:45:07.846Z,22.26
2017-11-01T13:47:33.592Z,22.27
2017-11-01T13:49:59.346Z,22.30
2017-11-01T13:52:25.156Z,22.23
2017-11-01T13:54:50.911Z,22.22
2017-11-01T13:57:16.688Z,22.28
2017-11-01T13:59:42.456Z,22.27
2017-11-01T14:02:08.212Z,22.25
2017-11-01T14:04:33.979Z,22.21
2017-11-01T14:06:59.742Z,22.21
2017-11-01T14:09:25.505Z,22.22
2017-11-01T14:11:51.299Z,22.24
2017-11-01T14:14:17.889Z,22.22
2017-11-01T14:16:43.633Z,22.23
2017-11-01T14:19:10.389Z,22.31
2017-11-01T14:21:36.190Z,22.28
2017-11-01T14:24:01.993Z,22.22
2017-11-01T14:26:28.753Z,22.26
2017-11-01T14:28:55.426Z,22.25
2017-11-01T14:31:22.112Z,22.27
2017-11-01T14:33:48.868Z,22.24
2017-11-01T14:36:15.564Z,22.20
2017-11-01T14:38:41.357Z,22.22
2017-11-01T14:41:08.216Z,22.19
2017-11-01T14:43:34.899Z,22.21
2017-11-01T14:46:00.724Z,22.26
2017-11-01T14:48:27.450Z,22.31
2017-11-01T14:50:53.217Z,22.38
2017-11-01T14:53:19.839Z,22.43
2017-11-01T14:55:45.623Z,22.42
2017-11-01T14:58:12.320Z,22.44
2017-11-01T15:00:38.129Z,22.46
2017-11-01T15:03:03.876Z,22.58
2017-11-01T15:05:30.516Z,22.53
2017-11-01T15:07:56.268Z,22.51
2017-11-01T15:10:22.074Z,22.47
2017-11-01T15:12:47.834Z,22.48
2017-11-01T15:15:14.451Z,22.54
2017-11-01T15:17:40.245Z,22.36
2017-11-01T15:20:06.980Z,22.38
2017-11-01T15:22:32.746Z,22.37
2017-11-01T15:24:59.305Z,22.45
2017-11-01T15:27:25.332Z,22.38
2017-11-01T15:29:52.124Z,22.48
2017-11-01T15:32:18.816Z,22.40
2017-11-01T15:34:45.604Z,22.43
2017-11-01T15:37:12.367Z,22.43
2017-11-01T15:39:39.164Z,22.35
2017-11-01T15:42:05.896Z,22.36
2017-11-01T15:44:32.571Z,22.31
2017-11-01T15:46:59.154Z,22.37
2017-11-01T15:49:25.866Z,22.29
2017-11-01T15:51:52.661Z,22.33
2017-11-01T15:54:18.420Z,22.39
2017-11-01T15:56:45.181Z,22.44
2017-11-01T15:59:11.984Z,22.37
2017-11-01T16:01:38.726Z,22.40
2017-11-01T16:04:04.782Z,22.41
2017-11-01T16:06:30.560Z,22.31
2017-11-01T16:08:57.367Z,22.33
2017-11-01T16:11:24.103Z,22.28
2017-11-01T16:13:50.818Z,22.31
2017-11-01T16:16:16.600Z,22.32
2017-11-01T16:18:43.223Z,22.30
2017-11-01T16:21:09.924Z,22.35
2017-11-01T16:23:36.696Z,22.33
2017-11-01T16:26:02.448Z,22.29
2017-11-01T16:28:29.140Z,22.36
2017-11-01T16:30:55.430Z,22.32
2017-11-01T16:33:22.020Z,22.36
2017-11-01T16:35:47.847Z,22.36
2017-11-01T16:38:13.607Z,22.35
2017-11-01T16:40:40.336Z,22.31
2017-11-01T16:43:06.085Z,22.29
2017-11-01T16:45:32.839Z,22.30
2017-11-01T16:47:59.391Z,22.33
2017-11-01T16:50:26.070Z,22.31
2017-11-01T16:52:51.820Z,22.23
2017-11-01T16:55:17.588Z,22.26
2017-11-01T16:57:43.397Z,22.31
2017-11-01T17:00:09.147Z,22.21
2017-11-01T17:02:35.734Z,22.29
2017-11-01T17:05:01.502Z,22.28
2017-11-01T17:07:28.192Z,22.27
2017-11-01T17:09:53.945Z,22.31
2017-11-01T17:12:19.692Z,22.31
2017-11-01T17:14:45.458Z,22.35
2017-11-01T17:17:11.255Z,22.30
2017-11-01T17:19:37.019Z,22.37
2017-11-01T17:22:03.592Z,22.35
2017-11-01T17:24:29.346Z,22.34
2017-11-01T17:26:55.753Z,22.27
2017-11-01T17:29:22.294Z,22.27
2017-11-01T17:31:48.078Z,22.27
2017-11-01T17:34:14.751Z,22.21
2017-11-01T17:36:40.515Z,22.23
2017-11-01T17:39:07.165Z,22.29
2017-11-01T17:41:32.925Z,22.31
2017-11-01T17:43:58.680Z,22.29
2017-11-01T17:46:24.582Z,22.33
2017-11-01T17:48:50.352Z,22.29
2017-11-01T17:51:16.104Z,22.29
2017-11-01T17:53:41.850Z,22.30
2017-11-01T17:56:08.504Z,22.27
2017-11-01T17:58:34.280Z,22.29
2017-11-01T18:01:00.036Z,22.32
2017-11-01T18:03:26.430Z,22.28
2017-11-01T18:05:52.194Z,22.31
2017-11-01T18:08:17.956Z,22.31
2017-11-01T18:10:43.734Z,22.29
2017-11-01T18:13:09.495Z,22.31
2017-11-01T18:15:35.263Z,22.33
2017-11-01T18:18:01.851Z,22.31
2017-11-01T18:20:27.609Z,22.32
2017-11-01T18:22:54.398Z,22.31
2017-11-01T18:25:20.146Z,22.22
2017-11-01T18:27:45.904Z,22.23
2017-11-01T18:30:11.660Z,22.31
2017-11-01T18:32:37.445Z,22.34
2017-11-01T18:35:03.229Z,22.26
2017-11-01T18:37:29.017Z,22.24
2017-11-01T18:39:54.771Z,22.27
2017-11-01T18:42:20.585Z,22.29
2017-11-01T18:44:47.233Z,22.28
2017-11-01T18:47:13.031Z,22.37
2017-11-01T18:49:39.834Z,22.45
2017-11-01T18:52:05.609Z,22.49
2017-11-01T18:54:31.391Z,22.49
2017-11-01T18:56:57.168Z,22.42
2017-11-01T18:59:22.966Z,22.41
2017-11-01T19:01:48.725Z,22.39
2017-11-01T19:04:15.349Z,22.40
2017-11-01T19:06:42.094Z,22.35
2017-11-01T19:09:08.300Z,22.31
2017-11-01T19:11:35.136Z,22.29
2017-11-01T19:14:00.892Z,22.35
2017-11-01T19:16:26.640Z,22.36
2017-11-01T19:18:53.196Z,22.38
2017-11-01T19:21:18.968Z,22.32
2017-11-01T19:23:44.772Z,22.36
2017-11-01T19:26:10.555Z,22.38
2017-11-01T19:28:37.131Z,22.38
2017-11-01T19:31:02.917Z,22.34
2017-11-01T19:33:30.665Z,22.34
2017-11-01T19:35:58.244Z,22.35
2017-11-01T19:38:24.024Z,22.33
2017-11-01T19:40:49.782Z,22.45
2017-11-01T19:43:15.591Z,22.30
2017-11-01T19:45:42.345Z,22.38
2017-11-01T19:48:09.005Z,22.38
2017-11-01T19:50:34.763Z,22.31
2017-11-01T19:53:00.531Z,22.34
2017-11-01T19:55:26.951Z,22.35
2017-11-01T19:57:53.567Z,22.36
2017-11-01T20:00:20.061Z,22.35
2017-11-01T20:02:45.814Z,22.32
2017-11-01T20:05:11.717Z,22.37
2017-11-01T20:07:37.805Z,22.36
2017-11-01T20:10:04.374Z,22.31
2017-11-01T20:12:30.141Z,22.36
2017-11-01T20:14:58.407Z,22.29
2017-11-01T20:17:24.174Z,22.32
2017-11-01T20:19:50.792Z,22.31
2017-11-01T20:22:16.582Z,22.30
2017-11-01T20:24:43.317Z,22.26
2017-11-01T20:27:09.136Z,22.25
2017-11-01T20:29:35.474Z,22.34
2017-11-01T20:32:01.250Z,22.36
2017-11-01T20:34:27.013Z,22.34
2017-11-01T20:36:52.778Z,22.35
2017-11-01T20:39:18.538Z,22.34
2017-11-01T20:41:44.305Z,22.34
2017-11-01T20:44:10.177Z,22.35
2017-11-01T20:46:36.094Z,22.26
2017-11-01T20:49:01.859Z,22.28
2017-11-01T20:51:28.701Z,22.36
2017-11-01T20:53:54.479Z,22.33
2017-11-01T20:56:20.257Z,22.35
2017-11-01T20:58:46.029Z,22.36
2017-11-01T21:01:11.801Z,22.33
2017-11-01T21:03:37.571Z,22.36
2017-11-01T21:06:03.351Z,22.29
2017-11-01T21:08:29.158Z,22.32
2017-11-01T21:10:54.932Z,22.35
2017-11-01T21:13:20.712Z,22.35
2017-11-01T21:15:46.485Z,22.38
2017-11-01T21:18:13.221Z,22.40
2017-11-01T21:20:40.029Z,22.32
2017-11-01T21:23:05.791Z,22.35
2017-11-01T21:25:31.561Z,22.29
2017-11-01T21:27:57.331Z,22.20
2017-11-01T21:30:24.044Z,22.28
2017-11-01T21:32:49.817Z,22.33
2017-11-01T21:35:15.624Z,22.38
2017-11-01T21:37:41.599Z,22.35
2017-11-01T21:40:07.364Z,22.34
2017-11-01T21:42:34.240Z,22.36
2017-11-01T21:44:59.996Z,22.32
2017-11-01T21:47:25.749Z,22.21
2017-11-01T21:49:51.510Z,22.23
2017-11-01T21:52:18.859Z,22.28
2017-11-01T21:54:44.620Z,22.31
2017-11-01T21:57:11.197Z,22.27
2017-11-01T21:59:37.140Z,22.19
2017-11-01T22:02:02.925Z,22.19
2017-11-01T22:04:28.675Z,22.27
2017-11-01T22:06:54.429Z,22.31
2017-11-01T22:09:20.209Z,22.34
2017-11-01T22:11:46.016Z,22.33
2017-11-01T22:14:11.788Z,22.30
2017-11-01T22:16:37.549Z,22.35
2017-11-01T22:19:03.302Z,22.39
2017-11-01T22:21:29.059Z,22.33
2017-11-01T22:23:54.836Z,22.32
2017-11-01T22:26:21.523Z,22.29
2017-11-01T22:28:48.853Z,22.32
2017-11-01T22:31:14.621Z,22.38
2017-11-01T22:33:42.273Z,22.37
2017-11-01T22:36:09.050Z,22.40
2017-11-01T22:38:36.653Z,22.35
2017-11-01T22:41:03.360Z,22.38
2017-11-01T22:43:30.503Z,22.36
2017-11-01T22:45:56.264Z,22.39
2017-11-01T22:48:22.020Z,22.27
2017-11-01T22:50:48.734Z,22.32
2017-11-01T22:53:15.483Z,22.33
2017-11-01T22:55:42.228Z,22.35
2017-11-01T22:58:09.030Z,22.38
2017-11-01T23:00:34.826Z,22.37
2017-11-01T23:03:00.589Z,22.34
2017-11-01T23:05:26.375Z,22.33
2017-11-01T23:07:52.144Z,22.35
2017-11-01T23:10:17.945Z,22.38
2017-11-01T23:12:43.703Z,22.32
2017-11-01T23:15:09.449Z,22.34
2017-11-01T23:17:35.211Z,22.36
2017-11-01T23:20:00.957Z,22.38
2017-11-01T23:22:26.711Z,22.36
2017-11-01T23:24:52.468Z,22.34
2017-11-01T23:27:19.153Z,22.35
2017-11-01T23:29:45.855Z,22.31
2017-11-01T23:32:11.619Z,22.36
2017-11-01T23:34:37.427Z,22.34
2017-11-01T23:37:03.172Z,22.24
2017-11-01T23:39:28.916Z,22.26
2017-11-01T23:41:54.670Z,22.30
2017-11-01T23:44:20.419Z,22.30
2017-11-01T23:46:46.307Z,22.36
2017-11-01T23:49:12.061Z,22.35
2017-11-01T23:51:38.963Z,22.39
2017-11-01T23:54:04.718Z,22.33
2017-11-01T23:56:30.507Z,22.37
2017-11-01T23:58:56.284Z,22.23
